sensor_id;sensor_type;location;lat;lon;timestamp;pressure;altitude;pressure_sealevel;temperature;humidity
79586;BME280;69054;50.866;4.636;2023-08-08T00:01:57;101221.53;;;9.82;100.00
79586;BME280;69054;50.866;4.636;2023-08-08T00:04:22;101219.66;;;10.29;100.00
79586;BME280;69054;50.866;4.636;2023-08-08T00:06:48;101221.84;;;10.57;100.00
79586;BME280;69054;50.866;4.636;2023-08-08T00:09:13;101220.56;;;10.68;100.00
79586;BME280;69054;50.866;4.636;2023-08-08T00:11:38;101216.94;;;10.67;100.00
79586;BME280;69054;50.866;4.636;2023-08-08T00:14:04;101223.09;;;10.69;100.00
79586;BME280;69054;50.866;4.636;2023-08-08T00:16:29;101216.59;;;10.70;100.00
79586;BME280;69054;50.866;4.636;2023-08-08T00:18:55;101218.94;;;10.58;100.00
79586;BME280;69054;50.866;4.636;2023-08-08T00:21:21;101217.88;;;10.59;100.00
79586;BME280;69054;50.866;4.636;2023-08-08T00:23:46;101214.53;;;10.72;100.00
79586;BME280;69054;50.866;4.636;2023-08-08T00:26:12;101212.84;;;10.86;100.00
79586;BME280;69054;50.866;4.636;2023-08-08T00:28:37;101209.28;;;10.86;100.00
79586;BME280;69054;50.866;4.636;2023-08-08T00:31:03;101209.28;;;10.86;100.00
79586;BME280;69054;50.866;4.636;2023-08-08T00:33:28;101210.19;;;10.93;100.00
79586;BME280;69054;50.866;4.636;2023-08-08T00:35:53;101212.56;;;10.96;100.00
79586;BME280;69054;50.866;4.636;2023-08-08T00:38:19;101191.81;;;11.01;100.00
79586;BME280;69054;50.866;4.636;2023-08-08T00:40:44;101196.72;;;11.21;100.00
79586;BME280;69054;50.866;4.636;2023-08-08T00:43:10;101204.72;;;11.23;100.00
79586;BME280;69054;50.866;4.636;2023-08-08T00:45:36;101199.25;;;11.23;100.00
79586;BME280;69054;50.866;4.636;2023-08-08T00:48:02;101196.53;;;11.23;100.00
79586;BME280;69054;50.866;4.636;2023-08-08T00:50:27;101194.63;;;11.38;100.00
79586;BME280;69054;50.866;4.636;2023-08-08T00:52:53;101192.25;;;11.35;100.00
79586;BME280;69054;50.866;4.636;2023-08-08T00:55:18;101190.59;;;11.34;100.00
79586;BME280;69054;50.866;4.636;2023-08-08T00:57:44;101193.47;;;11.32;100.00
79586;BME280;69054;50.866;4.636;2023-08-08T01:00:11;101186.16;;;11.33;100.00
79586;BME280;69054;50.866;4.636;2023-08-08T01:02:37;101185.28;;;11.32;100.00
79586;BME280;69054;50.866;4.636;2023-08-08T01:05:03;101183.31;;;11.26;100.00
79586;BME280;69054;50.866;4.636;2023-08-08T01:07:57;101193.88;;;11.29;100.00
79586;BME280;69054;50.866;4.636;2023-08-08T01:10:27;101188.66;;;11.49;100.00
79586;BME280;69054;50.866;4.636;2023-08-08T01:13:02;101187.50;;;11.59;100.00
79586;BME280;69054;50.866;4.636;2023-08-08T01:15:36;101186.53;;;11.66;100.00
79586;BME280;69054;50.866;4.636;2023-08-08T01:18:07;101176.56;;;11.59;100.00
79586;BME280;69054;50.866;4.636;2023-08-08T01:20:34;101183.44;;;11.54;100.00
79586;BME280;69054;50.866;4.636;2023-08-08T01:23:05;101176.16;;;11.62;100.00
79586;BME280;69054;50.866;4.636;2023-08-08T01:25:34;101177.19;;;11.61;100.00
79586;BME280;69054;50.866;4.636;2023-08-08T01:28:00;101172.41;;;11.63;100.00
79586;BME280;69054;50.866;4.636;2023-08-08T01:30:25;101180.03;;;11.67;100.00
79586;BME280;69054;50.866;4.636;2023-08-08T01:32:51;101175.41;;;11.68;100.00
79586;BME280;69054;50.866;4.636;2023-08-08T01:35:16;101179.34;;;11.65;100.00
79586;BME280;69054;50.866;4.636;2023-08-08T01:37:53;101173.16;;;11.57;100.00
79586;BME280;69054;50.866;4.636;2023-08-08T01:40:20;101171.91;;;11.59;100.00
79586;BME280;69054;50.866;4.636;2023-08-08T01:42:47;101165.28;;;11.68;100.00
79586;BME280;69054;50.866;4.636;2023-08-08T01:45:15;101176.31;;;11.75;100.00
79586;BME280;69054;50.866;4.636;2023-08-08T01:47:41;101173.41;;;11.77;100.00
79586;BME280;69054;50.866;4.636;2023-08-08T01:50:07;101173.44;;;11.83;100.00
79586;BME280;69054;50.866;4.636;2023-08-08T01:52:34;101174.13;;;11.85;100.00
79586;BME280;69054;50.866;4.636;2023-08-08T01:55:00;101162.06;;;11.80;100.00
79586;BME280;69054;50.866;4.636;2023-08-08T01:57:25;101164.97;;;11.78;100.00
79586;BME280;69054;50.866;4.636;2023-08-08T01:59:50;101159.03;;;11.75;100.00
79586;BME280;69054;50.866;4.636;2023-08-08T02:02:16;101158.72;;;11.63;100.00
79586;BME280;69054;50.866;4.636;2023-08-08T02:04:43;101164.38;;;11.61;100.00
79586;BME280;69054;50.866;4.636;2023-08-08T02:07:08;101145.81;;;11.78;100.00
79586;BME280;69054;50.866;4.636;2023-08-08T02:09:33;101151.94;;;11.80;100.00
79586;BME280;69054;50.866;4.636;2023-08-08T02:11:59;101153.69;;;11.66;100.00
79586;BME280;69054;50.866;4.636;2023-08-08T02:14:24;101155.97;;;11.63;100.00
79586;BME280;69054;50.866;4.636;2023-08-08T02:16:50;101153.16;;;11.56;100.00
79586;BME280;69054;50.866;4.636;2023-08-08T02:19:15;101149.06;;;11.67;100.00
79586;BME280;69054;50.866;4.636;2023-08-08T02:21:40;101133.50;;;11.67;100.00
79586;BME280;69054;50.866;4.636;2023-08-08T02:24:06;101143.72;;;11.59;100.00
79586;BME280;69054;50.866;4.636;2023-08-08T02:26:31;101142.97;;;11.50;100.00
79586;BME280;69054;50.866;4.636;2023-08-08T02:28:57;101149.97;;;11.52;100.00
79586;BME280;69054;50.866;4.636;2023-08-08T02:31:22;101143.91;;;11.57;100.00
79586;BME280;69054;50.866;4.636;2023-08-08T02:33:50;101145.78;;;11.57;100.00
79586;BME280;69054;50.866;4.636;2023-08-08T02:36:17;101136.44;;;11.66;100.00
79586;BME280;69054;50.866;4.636;2023-08-08T02:38:43;101140.59;;;11.62;100.00
79586;BME280;69054;50.866;4.636;2023-08-08T02:41:09;101137.50;;;11.50;100.00
79586;BME280;69054;50.866;4.636;2023-08-08T02:43:34;101132.22;;;11.48;100.00
79586;BME280;69054;50.866;4.636;2023-08-08T02:46:00;101144.22;;;11.47;100.00
79586;BME280;69054;50.866;4.636;2023-08-08T02:48:26;101134.13;;;11.48;100.00
79586;BME280;69054;50.866;4.636;2023-08-08T02:50:52;101136.28;;;11.52;100.00
79586;BME280;69054;50.866;4.636;2023-08-08T02:53:17;101127.53;;;11.42;100.00
79586;BME280;69054;50.866;4.636;2023-08-08T02:55:42;101132.03;;;11.50;100.00
79586;BME280;69054;50.866;4.636;2023-08-08T02:58:08;101130.66;;;11.39;100.00
79586;BME280;69054;50.866;4.636;2023-08-08T03:00:33;101136.00;;;11.47;100.00
79586;BME280;69054;50.866;4.636;2023-08-08T03:02:59;101143.78;;;11.29;100.00
79586;BME280;69054;50.866;4.636;2023-08-08T03:05:24;101133.78;;;11.36;100.00
79586;BME280;69054;50.866;4.636;2023-08-08T03:07:49;101139.25;;;11.36;100.00
79586;BME280;69054;50.866;4.636;2023-08-08T03:10:15;101135.97;;;11.26;100.00
79586;BME280;69054;50.866;4.636;2023-08-08T03:12:40;101130.69;;;11.09;100.00
79586;BME280;69054;50.866;4.636;2023-08-08T03:15:07;101132.16;;;10.90;100.00
79586;BME280;69054;50.866;4.636;2023-08-08T03:17:33;101138.28;;;10.77;100.00
79586;BME280;69054;50.866;4.636;2023-08-08T03:20:00;101137.13;;;10.72;100.00
79586;BME280;69054;50.866;4.636;2023-08-08T03:22:25;101126.50;;;10.92;100.00
79586;BME280;69054;50.866;4.636;2023-08-08T03:24:51;101134.13;;;10.96;100.00
79586;BME280;69054;50.866;4.636;2023-08-08T03:27:16;101134.78;;;10.83;100.00
79586;BME280;69054;50.866;4.636;2023-08-08T03:29:41;101129.81;;;10.72;100.00
79586;BME280;69054;50.866;4.636;2023-08-08T03:32:07;101128.16;;;10.93;100.00
79586;BME280;69054;50.866;4.636;2023-08-08T03:34:32;101114.88;;;11.05;100.00
79586;BME280;69054;50.866;4.636;2023-08-08T03:36:58;101127.41;;;11.14;100.00
79586;BME280;69054;50.866;4.636;2023-08-08T03:39:23;101121.66;;;11.09;100.00
79586;BME280;69054;50.866;4.636;2023-08-08T03:41:49;101119.28;;;11.21;100.00
79586;BME280;69054;50.866;4.636;2023-08-08T03:44:14;101126.06;;;11.25;100.00
79586;BME280;69054;50.866;4.636;2023-08-08T03:46:40;101125.47;;;11.29;100.00
79586;BME280;69054;50.866;4.636;2023-08-08T03:49:05;101127.00;;;11.17;100.00
79586;BME280;69054;50.866;4.636;2023-08-08T03:51:30;101132.59;;;11.24;100.00
79586;BME280;69054;50.866;4.636;2023-08-08T03:53:56;101123.88;;;11.20;100.00
79586;BME280;69054;50.866;4.636;2023-08-08T03:56:21;101126.63;;;11.20;100.00
79586;BME280;69054;50.866;4.636;2023-08-08T03:58:46;101129.69;;;11.10;100.00
79586;BME280;69054;50.866;4.636;2023-08-08T04:01:12;101129.38;;;11.05;100.00
79586;BME280;69054;50.866;4.636;2023-08-08T04:03:37;101132.69;;;11.00;100.00
79586;BME280;69054;50.866;4.636;2023-08-08T04:06:03;101127.72;;;11.04;100.00
79586;BME280;69054;50.866;4.636;2023-08-08T04:08:28;101125.34;;;11.01;100.00
79586;BME280;69054;50.866;4.636;2023-08-08T04:10:53;101122.88;;;11.06;100.00
79586;BME280;69054;50.866;4.636;2023-08-08T04:13:20;101115.25;;;11.01;100.00
79586;BME280;69054;50.866;4.636;2023-08-08T04:15:45;101117.03;;;11.09;100.00
79586;BME280;69054;50.866;4.636;2023-08-08T04:18:11;101117.91;;;11.10;100.00
79586;BME280;69054;50.866;4.636;2023-08-08T04:20:36;101116.19;;;11.09;100.00
79586;BME280;69054;50.866;4.636;2023-08-08T04:23:02;101117.72;;;10.96;100.00
79586;BME280;69054;50.866;4.636;2023-08-08T04:25:27;101119.13;;;10.77;100.00
79586;BME280;69054;50.866;4.636;2023-08-08T04:27:53;101111.19;;;10.97;100.00
79586;BME280;69054;50.866;4.636;2023-08-08T04:30:18;101108.19;;;11.07;100.00
79586;BME280;69054;50.866;4.636;2023-08-08T04:32:44;101107.78;;;11.10;100.00
79586;BME280;69054;50.866;4.636;2023-08-08T04:35:09;101104.50;;;11.15;100.00
79586;BME280;69054;50.866;4.636;2023-08-08T04:37:35;101099.84;;;11.15;100.00
79586;BME280;69054;50.866;4.636;2023-08-08T04:40:00;101098.13;;;11.29;100.00
79586;BME280;69054;50.866;4.636;2023-08-08T04:42:26;101107.44;;;11.35;100.00
79586;BME280;69054;50.866;4.636;2023-08-08T04:44:51;101112.34;;;11.40;100.00
79586;BME280;69054;50.866;4.636;2023-08-08T04:47:17;101110.34;;;11.48;100.00
79586;BME280;69054;50.866;4.636;2023-08-08T04:49:42;101115.69;;;11.57;100.00
79586;BME280;69054;50.866;4.636;2023-08-08T04:52:07;101111.25;;;11.56;100.00
79586;BME280;69054;50.866;4.636;2023-08-08T04:54:33;101110.00;;;11.58;100.00
79586;BME280;69054;50.866;4.636;2023-08-08T04:56:58;101104.88;;;11.70;100.00
79586;BME280;69054;50.866;4.636;2023-08-08T04:59:24;101109.94;;;11.73;100.00
79586;BME280;69054;50.866;4.636;2023-08-08T05:01:49;101108.47;;;11.70;100.00
79586;BME280;69054;50.866;4.636;2023-08-08T05:04:14;101109.75;;;11.75;100.00
79586;BME280;69054;50.866;4.636;2023-08-08T05:06:40;101113.59;;;11.80;100.00
79586;BME280;69054;50.866;4.636;2023-08-08T05:09:05;101111.31;;;11.84;100.00
79586;BME280;69054;50.866;4.636;2023-08-08T05:11:34;101106.75;;;11.91;100.00
79586;BME280;69054;50.866;4.636;2023-08-08T05:14:00;101104.88;;;11.92;100.00
79586;BME280;69054;50.866;4.636;2023-08-08T05:16:25;101101.38;;;11.98;100.00
79586;BME280;69054;50.866;4.636;2023-08-08T05:18:50;101111.75;;;12.02;100.00
79586;BME280;69054;50.866;4.636;2023-08-08T05:21:16;101118.09;;;12.10;100.00
79586;BME280;69054;50.866;4.636;2023-08-08T05:23:41;101115.84;;;12.13;100.00
79586;BME280;69054;50.866;4.636;2023-08-08T05:26:07;101117.78;;;12.19;100.00
79586;BME280;69054;50.866;4.636;2023-08-08T05:28:32;101112.31;;;12.19;100.00
79586;BME280;69054;50.866;4.636;2023-08-08T05:30:57;101114.44;;;12.24;100.00
79586;BME280;69054;50.866;4.636;2023-08-08T05:33:24;101114.09;;;12.34;100.00
79586;BME280;69054;50.866;4.636;2023-08-08T05:35:49;101117.09;;;12.39;100.00
79586;BME280;69054;50.866;4.636;2023-08-08T05:38:15;101123.47;;;12.46;100.00
79586;BME280;69054;50.866;4.636;2023-08-08T05:40:41;101120.16;;;12.57;100.00
79586;BME280;69054;50.866;4.636;2023-08-08T05:43:07;101119.34;;;12.64;100.00
79586;BME280;69054;50.866;4.636;2023-08-08T05:45:33;101121.53;;;12.75;100.00
79586;BME280;69054;50.866;4.636;2023-08-08T05:47:59;101129.00;;;12.88;100.00
79586;BME280;69054;50.866;4.636;2023-08-08T05:50:26;101128.66;;;13.04;100.00
79586;BME280;69054;50.866;4.636;2023-08-08T05:52:52;101124.28;;;13.17;99.18
79586;BME280;69054;50.866;4.636;2023-08-08T05:55:17;101134.06;;;13.32;98.54
79586;BME280;69054;50.866;4.636;2023-08-08T05:57:43;101143.47;;;13.58;97.43
79586;BME280;69054;50.866;4.636;2023-08-08T06:00:09;101139.69;;;13.93;95.53
79586;BME280;69054;50.866;4.636;2023-08-08T06:02:37;101133.59;;;14.37;92.92
79586;BME280;69054;50.866;4.636;2023-08-08T06:05:02;101144.16;;;14.81;89.96
79586;BME280;69054;50.866;4.636;2023-08-08T06:07:28;101140.91;;;15.04;87.81
79586;BME280;69054;50.866;4.636;2023-08-08T06:09:53;101146.25;;;14.79;88.67
79586;BME280;69054;50.866;4.636;2023-08-08T06:12:18;101157.28;;;14.52;90.07
79586;BME280;69054;50.866;4.636;2023-08-08T06:14:44;101152.44;;;14.34;90.97
79586;BME280;69054;50.866;4.636;2023-08-08T06:17:09;101158.56;;;14.29;90.94
79586;BME280;69054;50.866;4.636;2023-08-08T06:19:34;101149.44;;;14.76;89.71
79586;BME280;69054;50.866;4.636;2023-08-08T06:22:00;101147.81;;;15.20;86.31
79586;BME280;69054;50.866;4.636;2023-08-08T06:24:25;101154.84;;;15.61;84.33
79586;BME280;69054;50.866;4.636;2023-08-08T06:26:51;101156.34;;;15.57;83.33
79586;BME280;69054;50.866;4.636;2023-08-08T06:29:16;101151.81;;;15.69;83.39
79586;BME280;69054;50.866;4.636;2023-08-08T06:31:42;101153.66;;;15.89;82.43
79586;BME280;69054;50.866;4.636;2023-08-08T06:34:07;101160.09;;;16.33;80.92
79586;BME280;69054;50.866;4.636;2023-08-08T06:36:33;101156.22;;;16.41;79.46
79586;BME280;69054;50.866;4.636;2023-08-08T06:38:58;101156.19;;;16.66;78.74
79586;BME280;69054;50.866;4.636;2023-08-08T06:41:23;101162.09;;;16.95;77.07
79586;BME280;69054;50.866;4.636;2023-08-08T06:43:49;101160.00;;;17.27;76.92
79586;BME280;69054;50.866;4.636;2023-08-08T06:46:14;101171.94;;;17.58;74.54
79586;BME280;69054;50.866;4.636;2023-08-08T06:48:42;101155.44;;;17.70;73.40
79586;BME280;69054;50.866;4.636;2023-08-08T06:51:08;101156.38;;;17.76;74.98
79586;BME280;69054;50.866;4.636;2023-08-08T06:53:34;101159.72;;;18.38;71.26
79586;BME280;69054;50.866;4.636;2023-08-08T06:55:59;101169.22;;;18.54;70.18
79586;BME280;69054;50.866;4.636;2023-08-08T06:58:24;101165.97;;;18.34;71.84
79586;BME280;69054;50.866;4.636;2023-08-08T07:00:50;101165.97;;;18.34;70.21
79586;BME280;69054;50.866;4.636;2023-08-08T07:03:16;101163.13;;;18.10;71.17
79586;BME280;69054;50.866;4.636;2023-08-08T07:05:41;101163.19;;;18.34;71.84
79586;BME280;69054;50.866;4.636;2023-08-08T07:08:07;101160.03;;;18.30;70.72
79586;BME280;69054;50.866;4.636;2023-08-08T07:10:34;101164.53;;;18.43;70.37
79586;BME280;69054;50.866;4.636;2023-08-08T07:13:01;101151.97;;;18.17;69.38
79586;BME280;69054;50.866;4.636;2023-08-08T07:15:26;101144.75;;;17.73;71.20
79586;BME280;69054;50.866;4.636;2023-08-08T07:17:53;101143.66;;;17.44;71.48
79586;BME280;69054;50.866;4.636;2023-08-08T07:20:18;101146.38;;;17.63;72.42
79586;BME280;69054;50.866;4.636;2023-08-08T07:22:44;101142.81;;;17.74;71.17
79586;BME280;69054;50.866;4.636;2023-08-08T07:25:10;101145.22;;;17.22;72.50
79586;BME280;69054;50.866;4.636;2023-08-08T07:27:36;101142.97;;;17.30;72.94
79586;BME280;69054;50.866;4.636;2023-08-08T07:30:03;101146.44;;;17.26;73.27
79586;BME280;69054;50.866;4.636;2023-08-08T07:32:28;101139.81;;;17.45;72.89
79586;BME280;69054;50.866;4.636;2023-08-08T07:34:53;101156.06;;;17.53;72.69
79586;BME280;69054;50.866;4.636;2023-08-08T07:37:19;101141.47;;;17.65;71.24
79586;BME280;69054;50.866;4.636;2023-08-08T07:39:44;101148.03;;;17.64;71.73
79586;BME280;69054;50.866;4.636;2023-08-08T07:42:10;101143.38;;;17.64;70.38
79586;BME280;69054;50.866;4.636;2023-08-08T07:44:35;101145.84;;;17.54;71.41
79586;BME280;69054;50.866;4.636;2023-08-08T07:47:03;101152.41;;;17.41;72.83
79586;BME280;69054;50.866;4.636;2023-08-08T07:49:29;101149.34;;;17.31;73.25
79586;BME280;69054;50.866;4.636;2023-08-08T07:51:54;101147.34;;;17.19;73.02
79586;BME280;69054;50.866;4.636;2023-08-08T07:54:20;101140.22;;;17.12;73.59
79586;BME280;69054;50.866;4.636;2023-08-08T07:56:45;101133.47;;;17.08;73.09
79586;BME280;69054;50.866;4.636;2023-08-08T07:59:11;101133.34;;;17.02;73.17
79586;BME280;69054;50.866;4.636;2023-08-08T08:01:36;101138.25;;;17.19;73.39
79586;BME280;69054;50.866;4.636;2023-08-08T08:04:02;101135.81;;;17.60;72.57
79586;BME280;69054;50.866;4.636;2023-08-08T08:06:27;101137.03;;;17.76;71.54
79586;BME280;69054;50.866;4.636;2023-08-08T08:08:53;101152.09;;;18.22;69.31
79586;BME280;69054;50.866;4.636;2023-08-08T08:11:18;101143.59;;;18.47;69.05
79586;BME280;69054;50.866;4.636;2023-08-08T08:13:44;101143.47;;;18.18;69.58
79586;BME280;69054;50.866;4.636;2023-08-08T08:16:10;101143.69;;;18.29;69.81
79586;BME280;69054;50.866;4.636;2023-08-08T08:18:35;101142.63;;;18.30;67.83
79586;BME280;69054;50.866;4.636;2023-08-08T08:21:01;101136.50;;;18.27;69.24
79586;BME280;69054;50.866;4.636;2023-08-08T08:23:27;101141.06;;;18.34;68.78
79586;BME280;69054;50.866;4.636;2023-08-08T08:25:52;101137.69;;;18.32;68.42
79586;BME280;69054;50.866;4.636;2023-08-08T08:28:17;101146.94;;;18.37;68.63
79586;BME280;69054;50.866;4.636;2023-08-08T08:30:43;101138.63;;;18.85;67.96
79586;BME280;69054;50.866;4.636;2023-08-08T08:33:09;101144.31;;;18.66;66.45
79586;BME280;69054;50.866;4.636;2023-08-08T08:35:35;101147.06;;;18.54;67.68
79586;BME280;69054;50.866;4.636;2023-08-08T08:38:00;101157.91;;;18.32;69.06
79586;BME280;69054;50.866;4.636;2023-08-08T08:40:27;101155.53;;;18.71;67.97
79586;BME280;69054;50.866;4.636;2023-08-08T08:42:53;101160.81;;;18.73;65.91
79586;BME280;69054;50.866;4.636;2023-08-08T08:45:19;101159.09;;;18.24;67.88
79586;BME280;69054;50.866;4.636;2023-08-08T08:47:46;101155.50;;;18.36;68.28
79586;BME280;69054;50.866;4.636;2023-08-08T08:50:15;101156.31;;;18.36;67.91
79586;BME280;69054;50.866;4.636;2023-08-08T08:52:42;101158.38;;;18.41;67.65
79586;BME280;69054;50.866;4.636;2023-08-08T08:55:08;101155.13;;;18.32;66.99
79586;BME280;69054;50.866;4.636;2023-08-08T08:57:34;101148.28;;;18.58;66.68
79586;BME280;69054;50.866;4.636;2023-08-08T09:00:00;101154.78;;;18.52;65.87
79586;BME280;69054;50.866;4.636;2023-08-08T09:02:25;101151.66;;;18.60;67.24
79586;BME280;69054;50.866;4.636;2023-08-08T09:04:51;101154.41;;;18.84;66.10
79586;BME280;69054;50.866;4.636;2023-08-08T09:07:19;101152.84;;;19.12;64.55
79586;BME280;69054;50.866;4.636;2023-08-08T09:09:45;101153.75;;;19.70;62.67
79586;BME280;69054;50.866;4.636;2023-08-08T09:12:11;101151.84;;;20.67;60.99
79586;BME280;69054;50.866;4.636;2023-08-08T09:14:40;101157.47;;;21.56;58.58
79586;BME280;69054;50.866;4.636;2023-08-08T09:17:10;101151.63;;;21.52;56.98
79586;BME280;69054;50.866;4.636;2023-08-08T09:19:36;101156.88;;;21.76;56.17
79586;BME280;69054;50.866;4.636;2023-08-08T09:22:02;101159.53;;;21.43;56.72
79586;BME280;69054;50.866;4.636;2023-08-08T09:24:27;101163.28;;;21.76;55.61
79586;BME280;69054;50.866;4.636;2023-08-08T09:26:53;101159.81;;;21.64;56.16
79586;BME280;69054;50.866;4.636;2023-08-08T09:29:18;101162.88;;;21.01;57.52
79586;BME280;69054;50.866;4.636;2023-08-08T09:31:46;101161.06;;;20.90;57.42
79586;BME280;69054;50.866;4.636;2023-08-08T09:34:12;101170.06;;;21.19;57.07
79586;BME280;69054;50.866;4.636;2023-08-08T09:36:38;101159.69;;;21.54;55.30
79586;BME280;69054;50.866;4.636;2023-08-08T09:39:04;101162.88;;;21.90;52.95
79586;BME280;69054;50.866;4.636;2023-08-08T09:41:30;101156.50;;;22.27;53.44
79586;BME280;69054;50.866;4.636;2023-08-08T09:43:56;101168.03;;;21.54;55.00
79586;BME280;69054;50.866;4.636;2023-08-08T09:46:22;101172.06;;;22.50;52.82
79586;BME280;69054;50.866;4.636;2023-08-08T09:48:48;101176.91;;;22.32;52.23
79586;BME280;69054;50.866;4.636;2023-08-08T09:51:14;101181.75;;;22.42;52.16
79586;BME280;69054;50.866;4.636;2023-08-08T09:53:40;101176.00;;;22.97;49.93
79586;BME280;69054;50.866;4.636;2023-08-08T09:56:07;101178.16;;;22.47;51.48
79586;BME280;69054;50.866;4.636;2023-08-08T09:58:33;101178.59;;;21.13;54.81
79586;BME280;69054;50.866;4.636;2023-08-08T10:00:58;101173.84;;;20.57;56.60
79586;BME280;69054;50.866;4.636;2023-08-08T10:03:25;101168.06;;;20.59;55.79
79586;BME280;69054;50.866;4.636;2023-08-08T10:05:54;101172.00;;;20.12;58.02
79586;BME280;69054;50.866;4.636;2023-08-08T10:08:19;101171.22;;;19.99;59.54
79586;BME280;69054;50.866;4.636;2023-08-08T10:10:47;101172.03;;;19.71;58.80
79586;BME280;69054;50.866;4.636;2023-08-08T10:13:26;101162.91;;;20.16;56.97
79586;BME280;69054;50.866;4.636;2023-08-08T10:15:53;101162.91;;;19.99;57.89
79586;BME280;69054;50.866;4.636;2023-08-08T10:18:21;101159.34;;;19.87;57.12
79586;BME280;69054;50.866;4.636;2023-08-08T10:20:48;101170.97;;;20.01;57.85
79586;BME280;69054;50.866;4.636;2023-08-08T10:23:18;101168.59;;;19.64;59.34
79586;BME280;69054;50.866;4.636;2023-08-08T10:25:45;101174.31;;;19.45;60.93
79586;BME280;69054;50.866;4.636;2023-08-08T10:28:13;101167.66;;;19.06;61.49
79586;BME280;69054;50.866;4.636;2023-08-08T10:30:46;101168.41;;;18.77;61.83
79586;BME280;69054;50.866;4.636;2023-08-08T10:33:41;101169.00;;;18.44;63.45
79586;BME280;69054;50.866;4.636;2023-08-08T10:36:08;101167.63;;;18.23;62.50
79586;BME280;69054;50.866;4.636;2023-08-08T10:38:48;101163.84;;;18.05;62.67
79586;BME280;69054;50.866;4.636;2023-08-08T10:41:17;101153.66;;;17.87;63.53
79586;BME280;69054;50.866;4.636;2023-08-08T10:43:49;101153.84;;;17.74;64.17
79586;BME280;69054;50.866;4.636;2023-08-08T10:46:29;101150.03;;;17.75;64.51
79586;BME280;69054;50.866;4.636;2023-08-08T10:48:59;101152.38;;;17.60;65.77
79586;BME280;69054;50.866;4.636;2023-08-08T10:54:05;101139.88;;;17.57;67.07
79586;BME280;69054;50.866;4.636;2023-08-08T10:56:31;101143.66;;;17.74;65.53
79586;BME280;69054;50.866;4.636;2023-08-08T10:58:57;101135.94;;;17.95;64.96
79586;BME280;69054;50.866;4.636;2023-08-08T11:01:25;101141.03;;;18.10;65.07
79586;BME280;69054;50.866;4.636;2023-08-08T11:03:51;101140.22;;;18.21;64.79
79586;BME280;69054;50.866;4.636;2023-08-08T11:06:17;101142.97;;;18.33;64.34
79586;BME280;69054;50.866;4.636;2023-08-08T11:08:44;101142.72;;;18.11;64.46
79586;BME280;69054;50.866;4.636;2023-08-08T11:11:09;101147.00;;;17.95;65.94
79586;BME280;69054;50.866;4.636;2023-08-08T11:13:35;101141.03;;;17.80;66.28
79586;BME280;69054;50.866;4.636;2023-08-08T11:16:00;101142.09;;;17.67;66.75
79586;BME280;69054;50.866;4.636;2023-08-08T11:18:29;101141.31;;;17.60;67.04
79586;BME280;69054;50.866;4.636;2023-08-08T11:20:55;101150.44;;;17.60;67.83
79586;BME280;69054;50.866;4.636;2023-08-08T11:23:20;101144.38;;;17.82;67.59
79586;BME280;69054;50.866;4.636;2023-08-08T11:25:47;101148.84;;;18.13;65.95
79586;BME280;69054;50.866;4.636;2023-08-08T11:28:12;101148.38;;;18.28;63.70
79586;BME280;69054;50.866;4.636;2023-08-08T11:30:41;101146.22;;;18.42;61.85
79586;BME280;69054;50.866;4.636;2023-08-08T11:33:07;101140.00;;;18.58;59.11
79586;BME280;69054;50.866;4.636;2023-08-08T11:35:33;101138.75;;;19.13;58.57
79586;BME280;69054;50.866;4.636;2023-08-08T11:38:00;101131.06;;;19.73;55.75
79586;BME280;69054;50.866;4.636;2023-08-08T11:40:27;101144.25;;;20.63;53.99
79586;BME280;69054;50.866;4.636;2023-08-08T11:42:53;101155.09;;;20.81;52.80
79586;BME280;69054;50.866;4.636;2023-08-08T11:45:20;101151.38;;;21.15;52.67
79586;BME280;69054;50.866;4.636;2023-08-08T11:47:50;101164.41;;;21.09;51.16
79586;BME280;69054;50.866;4.636;2023-08-08T11:50:16;101156.19;;;20.80;52.17
79586;BME280;69054;50.866;4.636;2023-08-08T11:52:44;101154.88;;;20.32;53.96
79586;BME280;69054;50.866;4.636;2023-08-08T11:55:10;101151.75;;;20.28;53.92
79586;BME280;69054;50.866;4.636;2023-08-08T11:57:37;101159.75;;;20.42;52.76
79586;BME280;69054;50.866;4.636;2023-08-08T12:00:07;101147.22;;;20.56;53.05
79586;BME280;69054;50.866;4.636;2023-08-08T12:02:34;101164.78;;;20.79;52.98
79586;BME280;69054;50.866;4.636;2023-08-08T12:05:10;101158.66;;;20.77;51.33
79586;BME280;69054;50.866;4.636;2023-08-08T12:07:36;101155.84;;;20.26;51.61
79586;BME280;69054;50.866;4.636;2023-08-08T12:10:04;101156.03;;;20.36;52.17
79586;BME280;69054;50.866;4.636;2023-08-08T12:12:31;101138.88;;;19.88;50.18
79586;BME280;69054;50.866;4.636;2023-08-08T12:14:58;101151.81;;;19.71;52.01
79586;BME280;69054;50.866;4.636;2023-08-08T12:17:24;101141.22;;;19.39;52.31
79586;BME280;69054;50.866;4.636;2023-08-08T12:19:50;101137.38;;;19.40;52.51
79586;BME280;69054;50.866;4.636;2023-08-08T12:22:16;101134.97;;;20.91;51.26
79586;BME280;69054;50.866;4.636;2023-08-08T12:24:41;101129.81;;;22.63;48.14
79586;BME280;69054;50.866;4.636;2023-08-08T12:27:07;101136.84;;;23.19;44.77
79586;BME280;69054;50.866;4.636;2023-08-08T12:29:32;101140.72;;;22.70;45.46
79586;BME280;69054;50.866;4.636;2023-08-08T12:31:58;101135.63;;;23.04;46.48
79586;BME280;69054;50.866;4.636;2023-08-08T12:34:23;101135.63;;;23.04;46.10
79586;BME280;69054;50.866;4.636;2023-08-08T12:36:48;101131.50;;;24.48;41.79
79586;BME280;69054;50.866;4.636;2023-08-08T12:39:14;101121.72;;;24.19;42.20
79586;BME280;69054;50.866;4.636;2023-08-08T12:41:40;101118.09;;;24.55;41.60
79586;BME280;69054;50.866;4.636;2023-08-08T12:44:05;101115.72;;;25.08;39.86